createdAt,value
2018-02-06T00:00:28.707Z,99.90
2018-02-06T00:02:56.265Z,99.90
2018-02-06T00:05:23.116Z,99.90
2018-02-06T00:07:49.550Z,99.90
2018-02-06T00:10:15.981Z,99.90
2018-02-06T00:12:42.329Z,99.90
2018-02-06T00:15:08.902Z,99.90
2018-02-06T00:17:35.424Z,99.90
2018-02-06T00:20:03.352Z,99.90
2018-02-06T00:22:53.201Z,99.90
2018-02-06T00:25:21.070Z,99.90
2018-02-06T00:27:48.133Z,99.90
2018-02-06T00:30:14.509Z,99.90
2018-02-06T00:32:41.016Z,99.90
2018-02-06T00:35:07.445Z,99.90
2018-02-06T00:37:35.096Z,99.90
2018-02-06T00:40:02.141Z,99.90
2018-02-06T00:42:28.540Z,99.90
2018-02-06T00:44:55.358Z,99.90
2018-02-06T00:47:23.350Z,99.90
2018-02-06T00:49:49.732Z,99.90
2018-02-06T00:52:16.149Z,99.90
2018-02-06T00:54:42.537Z,99.90
2018-02-06T00:57:08.865Z,99.90
2018-02-06T00:59:35.316Z,99.90
2018-02-06T01:02:01.677Z,99.90
2018-02-06T01:04:28.496Z,99.90
2018-02-06T01:06:55.851Z,99.90
2018-02-06T01:09:22.197Z,99.90
2018-02-06T01:11:49.062Z,99.90
2018-02-06T01:14:16.359Z,99.90
2018-02-06T01:16:42.839Z,99.90
2018-02-06T01:19:09.464Z,99.90
2018-02-06T01:21:35.932Z,99.90
2018-02-06T01:24:02.365Z,99.90
2018-02-06T01:26:28.895Z,99.90
2018-02-06T01:28:55.676Z,99.90
2018-02-06T01:31:22.136Z,99.90
2018-02-06T01:33:48.926Z,99.90
2018-02-06T01:36:15.595Z,99.90
2018-02-06T01:38:42.900Z,99.90
2018-02-06T01:41:09.414Z,99.90
2018-02-06T01:43:36.012Z,99.90
2018-02-06T01:46:04.188Z,99.90
2018-02-06T01:48:31.488Z,99.90
2018-02-06T01:50:57.980Z,99.90
2018-02-06T01:53:24.396Z,99.90
2018-02-06T01:55:50.864Z,99.90
2018-02-06T01:58:18.480Z,99.90
2018-02-06T02:00:45.056Z,99.90
2018-02-06T02:03:11.417Z,99.90
2018-02-06T02:05:37.771Z,99.90
2018-02-06T02:08:04.181Z,99.90
2018-02-06T02:10:31.113Z,99.90
2018-02-06T02:12:58.767Z,99.90
2018-02-06T02:15:25.287Z,99.90
2018-02-06T02:17:51.655Z,99.90
2018-02-06T02:23:11.540Z,99.90
2018-02-06T02:25:38.688Z,99.90
2018-02-06T02:28:05.020Z,99.90
2018-02-06T02:30:32.266Z,99.90
2018-02-06T02:32:58.651Z,99.90
2018-02-06T02:35:25.055Z,99.90
2018-02-06T02:37:51.432Z,99.90
2018-02-06T02:40:18.879Z,99.90
2018-02-06T04:40:03.734Z,99.90
2018-02-06T04:42:30.497Z,99.90
2018-02-06T04:44:56.840Z,99.90
2018-02-06T04:47:23.906Z,99.90
2018-02-06T04:49:50.322Z,99.90
2018-02-06T04:52:16.956Z,99.90
2018-02-06T04:54:43.295Z,99.90
2018-02-06T04:57:09.684Z,99.90
2018-02-06T04:59:36.771Z,99.90
2018-02-06T05:02:03.267Z,99.90
2018-02-06T05:04:29.981Z,99.90
2018-02-06T05:06:57.138Z,99.90
2018-02-06T05:09:23.664Z,99.90
2018-02-06T05:11:50.101Z,99.90
2018-02-06T05:14:18.016Z,99.90
2018-02-06T05:16:44.448Z,99.90
2018-02-06T05:19:11.560Z,99.90
2018-02-06T05:21:37.963Z,99.90
2018-02-06T05:24:04.736Z,99.90
2018-02-06T05:26:31.859Z,99.90
2018-02-06T05:28:58.626Z,99.90
2018-02-06T05:31:25.753Z,99.90
2018-02-06T05:33:52.511Z,99.90
2018-02-06T05:36:19.536Z,99.90
2018-02-06T05:38:45.919Z,99.90
2018-02-06T05:41:13.081Z,99.90
2018-02-06T05:43:40.218Z,99.90
2018-02-06T05:46:07.685Z,99.90
2018-02-06T05:48:34.085Z,99.90
2018-02-06T05:51:00.800Z,99.90
2018-02-06T05:53:27.873Z,99.90
2018-02-06T05:55:55.443Z,99.90
2018-02-06T05:58:22.194Z,99.90
2018-02-06T06:00:49.294Z,99.90
2018-02-06T06:03:15.693Z,99.90
2018-02-06T06:05:42.451Z,99.90
2018-02-06T06:08:08.839Z,99.90
2018-02-06T06:10:35.338Z,99.90
2018-02-06T06:13:02.801Z,99.90
2018-02-06T06:15:29.122Z,99.90
2018-02-06T06:17:55.461Z,99.90
2018-02-06T06:20:22.578Z,99.90
2018-02-06T06:22:48.908Z,99.90
2018-02-06T06:25:15.288Z,99.90
2018-02-06T06:27:41.620Z,99.90
2018-02-06T06:30:07.916Z,99.90
2018-02-06T06:32:34.655Z,99.90
2018-02-06T06:35:01.414Z,99.90
2018-02-06T06:37:28.552Z,99.90
2018-02-06T06:39:55.725Z,99.90
2018-02-06T06:42:22.095Z,99.90
2018-02-06T06:44:48.844Z,99.90
2018-02-06T06:47:15.332Z,99.90
2018-02-06T06:49:42.499Z,99.90
2018-02-06T06:52:09.116Z,99.90
2018-02-06T06:54:35.809Z,99.90
2018-02-06T06:57:03.293Z,99.90
2018-02-06T06:59:29.655Z,99.90
2018-02-06T07:01:56.134Z,99.90
2018-02-06T07:04:23.347Z,99.90
2018-02-06T07:06:50.474Z,99.90
2018-02-06T07:09:16.918Z,99.90
2018-02-06T07:11:43.348Z,99.90
2018-02-06T07:14:09.853Z,99.90
2018-02-06T07:16:36.294Z,99.90
2018-02-06T07:19:02.681Z,99.90
2018-02-06T07:21:29.014Z,99.90
2018-02-06T07:23:55.758Z,99.90
2018-02-06T07:26:22.152Z,99.90
2018-02-06T07:28:48.509Z,99.90
2018-02-06T07:31:15.035Z,99.90
2018-02-06T07:33:41.485Z,99.90
2018-02-06T07:36:08.634Z,99.90
2018-02-06T07:38:35.368Z,99.90
2018-02-06T07:41:01.808Z,99.90
2018-02-06T07:45:56.240Z,99.90
2018-02-06T07:48:23.680Z,99.90
2018-02-06T07:50:52.460Z,99.90
2018-02-06T07:53:19.266Z,99.90
2018-02-06T07:55:45.829Z,99.90
2018-02-06T08:00:40.691Z,99.90
2018-02-06T08:03:07.846Z,99.90
2018-02-06T08:05:34.586Z,99.90
2018-02-06T08:08:00.985Z,99.90
2018-02-06T08:10:27.726Z,99.90
2018-02-06T08:12:54.065Z,99.90
2018-02-06T08:15:20.499Z,99.90
2018-02-06T08:17:47.687Z,99.90
2018-02-06T08:20:14.498Z,99.90
2018-02-06T08:22:42.422Z,99.90
2018-02-06T08:25:08.886Z,99.90
2018-02-06T08:27:35.293Z,99.90
2018-02-06T08:30:02.531Z,99.90
2018-02-06T08:32:28.987Z,99.90
2018-02-06T08:34:55.370Z,99.90
2018-02-06T08:37:21.761Z,99.90
2018-02-06T08:39:48.915Z,99.90
2018-02-06T08:42:15.274Z,99.90
2018-02-06T08:44:42.024Z,99.90
2018-02-06T08:49:36.644Z,99.90
2018-02-06T08:52:03.156Z,99.90
2018-02-06T08:54:30.352Z,99.90
2018-02-06T08:56:56.785Z,99.90
2018-02-06T08:59:23.173Z,99.90
2018-02-06T09:01:50.304Z,99.90
2018-02-06T09:04:17.825Z,99.90
2018-02-06T09:06:45.647Z,99.90
2018-02-06T09:09:13.114Z,99.90
2018-02-06T09:11:39.872Z,99.90
2018-02-06T09:14:06.319Z,99.90
2018-02-06T09:16:33.180Z,99.90
2018-02-06T09:18:59.483Z,99.90
2018-02-06T09:21:26.247Z,99.90
2018-02-06T09:23:52.628Z,99.90
2018-02-06T09:26:18.962Z,99.90
2018-02-06T09:28:45.445Z,99.90
2018-02-06T09:31:12.222Z,99.90
2018-02-06T09:33:38.611Z,99.90
2018-02-06T09:36:05.062Z,99.90
2018-02-06T09:38:31.556Z,99.90
2018-02-06T09:40:58.672Z,99.90
2018-02-06T09:43:25.058Z,99.90
2018-02-06T09:45:52.265Z,99.90
2018-02-06T09:48:18.634Z,99.90
2018-02-06T09:50:45.898Z,99.90
2018-02-06T09:53:12.346Z,99.90
2018-02-06T09:55:38.773Z,99.90
2018-02-06T09:58:06.549Z,99.90
2018-02-06T10:00:34.006Z,99.90
2018-02-06T10:03:00.422Z,99.90
2018-02-06T10:05:27.892Z,99.90
2018-02-06T10:07:54.253Z,99.90
2018-02-06T10:10:22.655Z,99.90
2018-02-06T10:12:49.896Z,99.90
2018-02-06T10:17:44.788Z,99.90
2018-02-06T10:20:11.188Z,99.90
2018-02-06T10:22:38.211Z,99.90
2018-02-06T10:25:04.568Z,99.90
2018-02-06T10:27:30.945Z,99.90
2018-02-06T10:29:58.485Z,99.90
2018-02-06T10:32:24.862Z,99.90
2018-02-06T10:34:51.324Z,99.90
2018-02-06T10:37:18.642Z,99.90
2018-02-06T10:39:44.951Z,99.90
2018-02-06T10:42:11.406Z,99.90
2018-02-06T10:44:39.326Z,99.90
2018-02-06T10:47:06.416Z,99.90
2018-02-06T10:49:33.486Z,99.90
2018-02-06T10:52:00.233Z,99.90
2018-02-06T10:54:27.002Z,99.90
2018-02-06T10:56:53.445Z,99.90
2018-02-06T10:59:20.082Z,99.90
2018-02-06T11:01:47.219Z,99.90
2018-02-06T11:04:14.137Z,99.90
2018-02-06T11:06:40.635Z,99.90
2018-02-06T11:09:07.351Z,99.90
2018-02-06T11:11:33.708Z,99.90
2018-02-06T11:14:00.803Z,99.90
2018-02-06T11:16:27.184Z,99.90
2018-02-06T11:18:53.832Z,99.90
2018-02-06T11:21:20.329Z,99.90
2018-02-06T11:23:46.732Z,99.90
2018-02-06T11:26:13.282Z,99.90
2018-02-06T11:28:39.698Z,99.90
2018-02-06T11:31:06.172Z,99.90
2018-02-06T11:33:33.317Z,99.90
2018-02-06T11:36:00.867Z,99.90
2018-02-06T11:38:27.995Z,99.90
2018-02-06T11:41:00.380Z,99.90
2018-02-06T11:43:26.724Z,99.90
2018-02-06T11:45:53.861Z,99.90
2018-02-06T11:48:20.616Z,99.90
2018-02-06T11:50:47.011Z,99.90
2018-02-06T11:53:13.396Z,99.90
2018-02-06T11:55:40.142Z,99.90
2018-02-06T12:00:35.408Z,99.90
2018-02-06T12:03:02.658Z,99.90
2018-02-06T12:10:25.218Z,99.90
2018-02-06T12:12:52.307Z,98.60
2018-02-06T12:15:18.925Z,97.90
2018-02-06T12:17:45.331Z,93.60
2018-02-06T12:20:12.385Z,68.60
2018-02-06T12:22:39.498Z,59.40
2018-02-06T12:25:07.774Z,56.80
2018-02-06T12:27:34.106Z,66.50
2018-02-06T12:30:01.214Z,48.40
2018-02-06T12:32:28.811Z,47.80
2018-02-06T12:34:55.889Z,49.00
2018-02-06T12:37:23.042Z,49.20
2018-02-06T12:39:49.781Z,54.60
2018-02-06T12:53:35.624Z,98.90
2018-02-06T12:56:02.052Z,98.60
2018-02-06T12:58:29.125Z,90.10
2018-02-06T13:00:55.554Z,94.70
2018-02-06T13:03:21.934Z,95.30
2018-02-06T13:08:17.612Z,91.20
2018-02-06T13:10:44.366Z,95.00
2018-02-06T13:13:10.832Z,98.30
2018-02-06T13:15:37.329Z,99.90
2018-02-06T13:18:04.358Z,94.80
2018-02-06T13:20:31.456Z,94.60
2018-02-06T13:22:58.786Z,94.30
2018-02-06T13:25:25.523Z,91.40
2018-02-06T13:27:52.242Z,90.30
2018-02-06T13:30:18.651Z,95.60
2018-02-06T13:32:45.362Z,79.10
2018-02-06T13:35:11.781Z,89.00
2018-02-06T13:37:38.492Z,89.10
2018-02-06T13:40:06.384Z,83.60
2018-02-06T13:42:33.095Z,92.80
2018-02-06T13:45:00.653Z,89.30
2018-02-06T13:47:26.970Z,93.90
2018-02-06T13:49:54.498Z,80.80
2018-02-06T13:52:20.839Z,87.10
2018-02-06T13:54:47.437Z,80.60
2018-02-06T13:59:41.931Z,85.50
2018-02-06T14:02:10.392Z,70.80
2018-02-06T14:07:05.346Z,71.50
2018-02-06T14:09:31.735Z,90.80
2018-02-06T14:11:58.121Z,88.40
2018-02-06T14:14:25.249Z,79.70
2018-02-06T14:16:51.652Z,93.80
2018-02-06T14:19:19.197Z,81.00
2018-02-06T14:21:45.724Z,92.70
2018-02-06T14:24:12.081Z,93.90
2018-02-06T14:26:39.212Z,78.00
2018-02-06T14:29:06.060Z,89.80
2018-02-06T14:31:32.411Z,85.60
2018-02-06T14:33:58.865Z,82.60
2018-02-06T14:36:25.309Z,86.60
2018-02-06T14:38:51.800Z,90.60
2018-02-06T14:41:19.037Z,87.70
2018-02-06T14:43:45.426Z,99.90
2018-02-06T14:46:11.787Z,99.90
2018-02-06T14:48:38.285Z,99.90
2018-02-06T14:51:04.704Z,99.90
2018-02-06T14:53:31.067Z,99.90
2018-02-06T14:55:58.162Z,99.90
2018-02-06T14:58:24.564Z,99.90
2018-02-06T15:00:51.043Z,99.90
2018-02-06T15:03:17.787Z,99.90
2018-02-06T15:05:45.536Z,92.20
2018-02-06T15:08:11.876Z,94.50
2018-02-06T15:10:39.471Z,89.60
2018-02-06T15:13:05.979Z,92.10
2018-02-06T15:15:32.383Z,94.00
2018-02-06T15:17:59.823Z,89.80
2018-02-06T15:20:27.005Z,90.80
2018-02-06T15:25:21.933Z,94.30
2018-02-06T15:27:48.355Z,99.90
2018-02-06T15:30:14.683Z,99.90
2018-02-06T15:35:10.799Z,99.90
2018-02-06T15:37:37.601Z,99.90
2018-02-06T15:40:04.115Z,99.90
2018-02-06T15:42:31.412Z,99.90
2018-02-06T15:44:57.926Z,99.90
2018-02-06T15:47:25.138Z,99.90
2018-02-06T15:49:51.862Z,99.90
2018-02-06T15:52:19.069Z,99.90
2018-02-06T15:54:45.847Z,99.90
2018-02-06T15:57:12.446Z,99.90
2018-02-06T15:59:39.600Z,99.90
2018-02-06T16:02:07.720Z,99.90
2018-02-06T16:04:35.049Z,99.90
2018-02-06T16:07:01.795Z,99.90
2018-02-06T16:14:24.904Z,99.90
2018-02-06T16:16:51.293Z,99.90
2018-02-06T16:19:18.520Z,99.90
2018-02-06T16:21:44.913Z,99.90
2018-02-06T16:24:11.331Z,99.90
2018-02-06T16:26:39.351Z,99.90
2018-02-06T16:29:06.068Z,99.90
2018-02-06T16:31:32.861Z,99.90
2018-02-06T16:36:27.966Z,99.90
2018-02-06T16:41:22.740Z,99.90
2018-02-06T16:43:49.381Z,99.90
2018-02-06T16:46:16.717Z,99.90
2018-02-06T16:48:43.545Z,99.90
2018-02-06T16:51:11.224Z,99.90
2018-02-06T16:53:38.869Z,99.90
2018-02-06T16:56:06.555Z,99.90
2018-02-06T16:58:34.407Z,99.90
2018-02-06T17:01:00.878Z,99.90
2018-02-06T17:03:28.763Z,99.90
2018-02-06T17:08:24.052Z,99.90
2018-02-06T17:13:18.653Z,99.90
2018-02-06T17:15:45.021Z,99.90
2018-02-06T17:21:10.238Z,99.90
2018-02-06T17:23:37.237Z,99.90
2018-02-06T17:26:03.787Z,99.90
2018-02-06T17:28:30.952Z,99.90
2018-02-06T17:30:58.161Z,99.90
2018-02-06T17:33:25.339Z,99.90
2018-02-06T17:35:52.925Z,99.90
2018-02-06T17:38:19.368Z,99.90
2018-02-06T17:40:45.765Z,99.90
2018-02-06T17:43:12.205Z,99.90
2018-02-06T17:45:39.047Z,99.90
2018-02-06T17:48:06.234Z,99.90
2018-02-06T17:50:33.137Z,99.90
2018-02-06T17:52:59.945Z,99.90
2018-02-06T17:55:26.381Z,99.90
2018-02-06T17:57:53.973Z,99.90
2018-02-06T18:00:21.320Z,99.90
2018-02-06T18:02:47.982Z,99.90
2018-02-06T18:05:15.210Z,99.90
2018-02-06T18:07:41.841Z,99.90
2018-02-06T18:10:08.732Z,99.90
2018-02-06T18:12:35.666Z,99.90
2018-02-06T18:15:02.570Z,99.90
2018-02-06T18:17:30.590Z,99.90
2018-02-06T18:19:57.024Z,99.90
2018-02-06T18:22:23.821Z,99.90
2018-02-06T18:24:51.040Z,99.90
2018-02-06T18:27:18.252Z,99.90
2018-02-06T18:29:45.153Z,99.90
2018-02-06T18:32:11.610Z,99.90
2018-02-06T18:34:38.985Z,99.90
2018-02-06T18:39:33.524Z,99.90
2018-02-06T18:42:00.180Z,99.90
2018-02-06T18:44:27.212Z,99.90
2018-02-06T18:46:54.484Z,99.90
2018-02-06T18:49:21.779Z,99.90
2018-02-06T18:51:48.624Z,99.90
2018-02-06T18:54:15.184Z,99.90
2018-02-06T18:56:41.681Z,99.90
2018-02-06T18:59:10.328Z,99.90
2018-02-06T19:01:36.994Z,99.90
2018-02-06T19:04:04.561Z,99.90
2018-02-06T19:06:31.767Z,99.90
2018-02-06T19:08:58.220Z,99.90
2018-02-06T19:11:25.514Z,99.90
2018-02-06T19:13:52.372Z,99.90
2018-02-06T19:16:19.718Z,99.90
2018-02-06T19:18:46.296Z,99.90
2018-02-06T19:21:13.091Z,99.90
2018-02-06T19:23:40.723Z,99.90
2018-02-06T19:26:07.915Z,99.90
2018-02-06T19:28:34.327Z,99.90
2018-02-06T19:31:01.090Z,99.90
2018-02-06T19:33:28.240Z,99.90
2018-02-06T19:35:54.815Z,99.90
2018-02-06T19:38:21.236Z,99.90
2018-02-06T19:40:48.501Z,99.90
2018-02-06T19:43:14.981Z,99.90
2018-02-06T19:45:41.556Z,99.90
2018-02-06T19:48:08.174Z,99.90
2018-02-06T19:50:34.866Z,99.90
2018-02-06T19:53:01.580Z,99.90
2018-02-06T19:55:29.294Z,99.90
2018-02-06T19:57:55.897Z,99.90
2018-02-06T20:00:22.407Z,99.90
2018-02-06T20:02:48.962Z,99.90
2018-02-06T20:05:15.594Z,99.90
2018-02-06T20:07:42.260Z,99.90
2018-02-06T20:10:09.280Z,99.90
2018-02-06T20:12:38.514Z,99.90
2018-02-06T20:15:04.945Z,99.90
2018-02-06T20:17:31.759Z,99.90
2018-02-06T20:19:58.304Z,99.90
2018-02-06T20:22:24.744Z,99.90
2018-02-06T20:24:51.178Z,99.90
2018-02-06T20:27:18.110Z,99.90
2018-02-06T20:29:46.085Z,99.90
2018-02-06T20:32:12.950Z,99.90
2018-02-06T20:34:39.508Z,99.90
2018-02-06T20:37:06.332Z,99.90
2018-02-06T20:39:32.825Z,99.90
2018-02-06T20:41:59.604Z,99.90
2018-02-06T20:44:27.333Z,99.90
2018-02-06T20:46:55.281Z,99.90
2018-02-06T20:49:23.063Z,99.90
2018-02-06T20:51:50.165Z,99.90
2018-02-06T20:54:18.465Z,99.90
2018-02-06T20:56:45.153Z,99.90
2018-02-06T20:59:12.533Z,99.90
2018-02-06T21:01:41.117Z,99.90
2018-02-06T21:04:08.173Z,99.90
2018-02-06T21:06:35.771Z,99.90
2018-02-06T21:09:03.283Z,99.90
2018-02-06T21:11:30.571Z,99.90
2018-02-06T21:13:57.063Z,99.90
2018-02-06T21:16:23.819Z,99.90
2018-02-06T21:18:50.985Z,99.90
2018-02-06T21:21:17.823Z,99.90
2018-02-06T21:23:44.751Z,99.90
2018-02-06T21:26:11.258Z,99.90
2018-02-06T21:28:38.051Z,99.90
2018-02-06T21:31:05.478Z,99.90
2018-02-06T21:33:31.995Z,99.90
2018-02-06T21:35:59.256Z,99.90
2018-02-06T21:38:29.072Z,99.90
2018-02-06T21:40:56.652Z,99.90
2018-02-06T21:43:23.072Z,99.90
2018-02-06T21:45:49.418Z,99.90
2018-02-06T21:48:15.876Z,99.90
2018-02-06T21:50:42.270Z,99.90
2018-02-06T21:53:09.094Z,99.90
2018-02-06T21:58:03.664Z,99.90
2018-02-06T22:00:30.599Z,99.90
2018-02-06T22:02:57.551Z,99.90
2018-02-06T22:05:24.060Z,99.90
2018-02-06T22:07:50.523Z,99.90
2018-02-06T22:10:16.938Z,99.90
2018-02-06T22:12:43.791Z,99.90
2018-02-06T22:15:10.288Z,99.90
2018-02-06T22:17:36.739Z,99.90
2018-02-06T22:20:05.537Z,99.90
2018-02-06T22:25:00.049Z,99.90
2018-02-06T22:27:26.447Z,99.90
2018-02-06T22:29:52.914Z,99.90
2018-02-06T22:34:47.789Z,99.90
2018-02-06T22:37:14.184Z,99.90
2018-02-06T22:39:41.677Z,99.90
2018-02-06T22:44:36.410Z,99.90
2018-02-06T22:47:02.839Z,99.90
2018-02-06T22:49:29.224Z,99.90
2018-02-06T22:51:56.654Z,99.90
2018-02-06T22:54:23.467Z,99.90
2018-02-06T22:56:49.874Z,99.90
2018-02-06T22:59:16.238Z,99.90
2018-02-06T23:01:42.676Z,99.90
2018-02-06T23:04:09.185Z,99.90
2018-02-06T23:06:35.640Z,99.90
2018-02-06T23:09:02.381Z,99.90
2018-02-06T23:11:28.812Z,99.90
2018-02-06T23:13:55.468Z,99.90
2018-02-06T23:16:21.884Z,99.90
2018-02-06T23:18:48.975Z,99.90
2018-02-06T23:21:16.080Z,99.90
2018-02-06T23:23:42.494Z,99.90
2018-02-06T23:26:10.480Z,99.90
2018-02-06T23:28:37.846Z,99.90
2018-02-06T23:31:04.482Z,99.90
2018-02-06T23:33:32.125Z,99.90
2018-02-06T23:35:59.329Z,99.90
2018-02-06T23:38:25.739Z,99.90
2018-02-06T23:40:52.155Z,99.90
2018-02-06T23:43:18.530Z,99.90
2018-02-06T23:45:46.061Z,99.90
2018-02-06T23:48:12.430Z,99.90
2018-02-06T23:50:38.867Z,99.90
2018-02-06T23:55:36.754Z,99.90
2018-02-06T23:58:03.121Z,99.90
